John C. Munro Hamilton International Airport

CYHM | YHM

Hamilton , Ontario , Canada

Saturday, September 21st, 2019 | 07:42

Weather

CYHM 211100Z 12002KT 10SM FEW045 FEW220 15/15 A3020 RMK SC1CI1 SLP227

Charts

No Charts Available

Gates

28 Available

Runways

2 Available

Events

No events for this airport


New event